TLPC/SLU METAR and TAF weather

Enter ICAO airport designator
Station Type Date Time Source
TLPC METAR 2023/01/29 19:00 UTC NOAA

TLPC 291900Z 09008KT 9999 FEW025 BKN040 28/20 Q1014 NOSIG


Station Type Date Time Source
TLPC Decoded METAR 2023/01/29 19:00 UTC NOAA

Vigie, Saint Lucia (TLPC) 14-01N 061-00W 2M
Jan 29, 2023 - 02:00 PM EST / 2023.01.29 1900 UTC
Wind: from the E (090 degrees) at 9 MPH (8 KT):0
Visibility: greater than 7 mile(s):0
Sky conditions: mostly cloudy
Temperature: 82 F (28 C)
Dew Point: 68 F (20 C)
Relative Humidity: 61%
Pressure (altimeter): 29.94 in. Hg (1014 hPa)
ob: TLPC 291900Z 09008KT 9999 FEW025 BKN040 28/20 Q1014 NOSIG
cycle: 19

Station Type Date Time Source
TLPC TAF 2023/01/29 18:12 UTC NOAA

TAF TLPC 291700Z 2918/3018 10009KT 9999 SCT025
TEMPO 2918/3012 SHRA BKN015 BKN040

Example: see airport list